Nordborg, Denmark
Current Conditions -  °F | °C
As of 7:50 PM on Sunday 25 Jan 2015 (Local Time) from EKSB Reporting Station
Moderate Fog Moderate Fog  
Wind Chill: 37°   Ceiling: 400
Heat Index: 37°   Visibility: 0.43mi
Dew Point: 37°   Wind: 2mph
Humidity: 100%   Direction: 230°SW
Pressure: 30.21"   Gusts: NA
Location:  55.06°N, 9.74°E
Report Text: EKSB 251850Z 23002KT 0700 R32/1200U FG VV004 03/03 Q1023
Loading
Personal Weather Stations






























Interactive Weather Map New forecast layout! Learn more

10-Day Weather Forecast

Advertisements
Track Severe Weather on mobile